createdAt,value
2018-05-26T00:00:58.421Z,19.80
2018-05-26T00:03:01.934Z,19.60
2018-05-26T00:05:05.389Z,19.60
2018-05-26T00:07:08.931Z,19.60
2018-05-26T00:09:12.424Z,19.60
2018-05-26T00:11:16.064Z,19.50
2018-05-26T00:13:19.508Z,19.50
2018-05-26T00:15:23.707Z,19.50
2018-05-26T00:17:27.269Z,19.50
2018-05-26T00:19:30.811Z,19.50
2018-05-26T00:21:34.331Z,19.50
2018-05-26T00:23:37.937Z,19.50
2018-05-26T00:25:41.471Z,19.40
2018-05-26T00:27:45.099Z,19.40
2018-05-26T00:29:48.529Z,19.50
2018-05-26T00:31:52.717Z,19.40
2018-05-26T00:33:56.123Z,19.40
2018-05-26T00:35:59.888Z,19.40
2018-05-26T00:38:03.936Z,19.30
2018-05-26T00:40:08.188Z,19.40
2018-05-26T00:42:11.660Z,19.30
2018-05-26T00:44:15.109Z,19.30
2018-05-26T00:46:18.563Z,19.30
2018-05-26T00:48:22.148Z,19.30
2018-05-26T00:50:26.627Z,19.30
2018-05-26T00:52:29.946Z,19.20
2018-05-26T00:54:33.333Z,19.20
2018-05-26T00:56:36.684Z,19.20
2018-05-26T00:58:40.029Z,19.20
2018-05-26T01:00:43.375Z,19.20
2018-05-26T01:02:46.736Z,19.10
2018-05-26T01:04:50.090Z,19.20
2018-05-26T01:06:53.453Z,19.20
2018-05-26T01:08:57.406Z,19.20
2018-05-26T01:11:00.867Z,19.20
2018-05-26T01:13:04.551Z,19.20
2018-05-26T01:15:07.986Z,19.20
2018-05-26T01:17:11.373Z,19.20
2018-05-26T01:19:16.152Z,19.10
2018-05-26T01:21:19.614Z,19.10
2018-05-26T01:23:23.014Z,19.10
2018-05-26T01:25:26.441Z,19.10
2018-05-26T01:27:29.845Z,19.10
2018-05-26T01:29:33.268Z,19.10
2018-05-26T01:31:36.720Z,19.00
2018-05-26T01:33:40.141Z,19.00
2018-05-26T01:35:43.561Z,19.00
2018-05-26T01:37:47.322Z,18.90
2018-05-26T01:39:50.856Z,18.90
2018-05-26T01:41:54.485Z,18.90
2018-05-26T01:43:58.048Z,18.90
2018-05-26T01:46:01.502Z,18.90
2018-05-26T01:48:05.826Z,18.90
2018-05-26T01:50:09.268Z,18.80
2018-05-26T01:52:12.604Z,18.80
2018-05-26T01:54:15.907Z,18.80
2018-05-26T01:56:20.056Z,18.80
2018-05-26T01:58:24.812Z,18.80
2018-05-26T02:00:29.003Z,18.80
2018-05-26T02:02:32.452Z,18.70
2018-05-26T02:04:35.861Z,18.80
2018-05-26T02:06:39.182Z,18.70
2018-05-26T02:08:42.601Z,18.70
2018-05-26T02:10:46.739Z,18.60
2018-05-26T02:12:50.082Z,18.70
2018-05-26T02:14:53.441Z,18.60
2018-05-26T02:16:56.793Z,18.60
2018-05-26T02:19:00.171Z,18.60
2018-05-26T02:21:03.601Z,18.60
2018-05-26T02:23:07.021Z,18.60
2018-05-26T02:25:10.339Z,18.60
2018-05-26T02:27:13.791Z,18.60
2018-05-26T02:29:17.126Z,18.60
2018-05-26T02:31:20.488Z,18.50
2018-05-26T02:33:23.844Z,18.50
2018-05-26T02:35:27.144Z,18.50
2018-05-26T02:37:30.501Z,18.50
2018-05-26T02:39:34.014Z,18.50
2018-05-26T02:41:37.437Z,18.40
2018-05-26T02:43:40.779Z,18.40
2018-05-26T02:45:45.230Z,18.40
2018-05-26T02:47:48.567Z,18.30
2018-05-26T02:49:51.953Z,18.40
2018-05-26T02:51:55.503Z,18.40
2018-05-26T02:53:58.876Z,18.40
2018-05-26T02:56:03.009Z,18.30
2018-05-26T02:58:06.428Z,18.30
2018-05-26T03:00:09.949Z,18.30
2018-05-26T03:02:13.362Z,18.30
2018-05-26T03:04:22.380Z,18.20
2018-05-26T03:06:31.057Z,18.30
2018-05-26T03:08:39.928Z,18.20
2018-05-26T03:10:48.857Z,18.20
2018-05-26T03:12:58.533Z,18.20
2018-05-26T03:15:01.219Z,18.10
2018-05-26T03:17:04.807Z,18.20
2018-05-26T03:19:08.203Z,18.10
2018-05-26T03:21:11.577Z,18.10
2018-05-26T03:23:14.947Z,18.00
2018-05-26T03:25:18.308Z,18.00
2018-05-26T03:27:21.734Z,18.00
2018-05-26T03:29:26.081Z,18.00
2018-05-26T03:31:29.399Z,18.00
2018-05-26T03:33:32.809Z,18.00
2018-05-26T03:35:36.159Z,18.00
2018-05-26T03:37:39.595Z,18.10
2018-05-26T03:39:43.027Z,18.10
2018-05-26T03:41:47.214Z,18.10
2018-05-26T03:43:50.603Z,18.10
2018-05-26T03:45:53.977Z,18.10
2018-05-26T03:47:58.090Z,18.00
2018-05-26T03:50:01.481Z,18.00
2018-05-26T03:52:04.863Z,18.00
2018-05-26T03:54:08.350Z,18.00
2018-05-26T03:56:29.323Z,18.00
2018-05-26T03:58:50.252Z,18.00
2018-05-26T04:00:53.695Z,18.00
2018-05-26T04:02:57.083Z,18.00
2018-05-26T04:05:00.469Z,18.00
2018-05-26T04:07:05.009Z,18.00
2018-05-26T04:09:09.320Z,18.00
2018-05-26T04:11:12.646Z,18.00
2018-05-26T04:13:17.063Z,18.00
2018-05-26T04:15:20.486Z,18.00
2018-05-26T04:17:23.827Z,18.00
2018-05-26T04:19:27.292Z,18.00
2018-05-26T04:21:31.424Z,18.00
2018-05-26T04:23:36.511Z,18.00
2018-05-26T04:25:39.969Z,18.00
2018-05-26T04:27:44.948Z,18.00
2018-05-26T04:29:48.287Z,18.00
2018-05-26T04:31:52.659Z,18.00
2018-05-26T04:33:56.761Z,18.00
2018-05-26T04:36:00.075Z,18.00
2018-05-26T04:38:03.446Z,18.00
2018-05-26T04:40:07.581Z,18.00
2018-05-26T04:42:10.946Z,17.90
2018-05-26T04:44:14.330Z,18.10
2018-05-26T04:46:17.784Z,18.10
2018-05-26T04:48:21.234Z,18.20
2018-05-26T04:50:24.602Z,18.20
2018-05-26T04:52:28.051Z,18.20
2018-05-26T04:54:31.430Z,18.20
2018-05-26T04:56:35.612Z,18.20
2018-05-26T04:58:39.180Z,18.20
2018-05-26T05:00:42.577Z,18.30
2018-05-26T05:02:46.022Z,18.30
2018-05-26T05:04:50.181Z,18.30
2018-05-26T05:06:53.596Z,18.30
2018-05-26T05:08:56.998Z,18.40
2018-05-26T05:11:00.526Z,18.40
2018-05-26T05:13:04.687Z,18.50
2018-05-26T05:15:08.868Z,18.50
2018-05-26T05:17:12.320Z,18.50
2018-05-26T05:19:15.705Z,18.50
2018-05-26T05:21:19.072Z,18.60
2018-05-26T05:23:23.254Z,18.70
2018-05-26T05:25:27.403Z,18.70
2018-05-26T05:27:30.829Z,18.70
2018-05-26T05:29:34.241Z,18.70
2018-05-26T05:31:38.553Z,18.80
2018-05-26T05:33:42.687Z,18.90
2018-05-26T05:35:46.208Z,18.90
2018-05-26T05:37:49.548Z,18.90
2018-05-26T05:39:53.767Z,19.00
2018-05-26T05:41:57.130Z,19.00
2018-05-26T05:44:00.634Z,19.10
2018-05-26T05:46:04.044Z,19.20
2018-05-26T05:48:07.489Z,19.20
2018-05-26T05:50:10.865Z,19.20
2018-05-26T05:52:14.326Z,19.30
2018-05-26T06:21:44.181Z,19.90
2018-05-26T06:23:47.581Z,20.00
2018-05-26T06:25:51.788Z,20.20
2018-05-26T06:27:55.179Z,20.10
2018-05-26T06:29:58.597Z,20.20
2018-05-26T06:32:02.171Z,20.30
2018-05-26T06:34:05.575Z,20.30
2018-05-26T06:36:08.959Z,20.30
2018-05-26T06:38:12.347Z,20.40
2018-05-26T06:40:16.004Z,20.50
2018-05-26T06:42:19.647Z,20.60
2018-05-26T06:44:23.050Z,20.60
2018-05-26T06:46:26.483Z,20.60
2018-05-26T06:48:31.107Z,20.70
2018-05-26T06:50:34.675Z,20.70
2018-05-26T06:52:38.337Z,20.70
2018-05-26T06:54:41.947Z,20.80
2018-05-26T06:56:45.465Z,20.80
2018-05-26T06:58:48.824Z,20.90
2018-05-26T07:00:52.182Z,21.00
2018-05-26T07:02:55.588Z,21.00
2018-05-26T07:04:58.955Z,21.20
2018-05-26T07:07:02.301Z,21.20
2018-05-26T07:09:05.827Z,21.20
2018-05-26T07:11:09.191Z,21.30
2018-05-26T07:13:12.518Z,21.30
2018-05-26T07:15:15.883Z,21.40
2018-05-26T07:17:19.252Z,21.50
2018-05-26T07:19:22.658Z,21.50
2018-05-26T07:21:25.998Z,21.50
2018-05-26T07:23:29.460Z,21.60
2018-05-26T07:25:32.947Z,21.70
2018-05-26T07:27:36.550Z,21.80
2018-05-26T07:29:39.856Z,21.80
2018-05-26T07:31:43.202Z,21.90
2018-05-26T07:33:46.559Z,21.90
2018-05-26T07:35:49.871Z,22.00
2018-05-26T07:37:53.955Z,22.10
2018-05-26T07:39:57.291Z,22.00
2018-05-26T07:42:00.623Z,22.20
2018-05-26T07:44:03.946Z,22.20
2018-05-26T07:46:08.243Z,22.30
2018-05-26T07:48:11.576Z,22.40
2018-05-26T07:50:14.890Z,22.40
2018-05-26T07:52:18.287Z,22.50
2018-05-26T07:54:21.638Z,22.60
2018-05-26T07:56:24.934Z,22.70
2018-05-26T07:58:28.639Z,22.80
2018-05-26T08:00:32.921Z,22.90
2018-05-26T08:02:36.340Z,22.90
2018-05-26T08:04:39.835Z,22.90
2018-05-26T08:06:43.367Z,23.00
2018-05-26T08:08:46.732Z,23.00
2018-05-26T08:10:50.184Z,23.20
2018-05-26T08:12:53.509Z,23.20
2018-05-26T08:14:57.629Z,23.30
2018-05-26T08:17:00.967Z,23.30
2018-05-26T08:19:04.392Z,23.30
2018-05-26T08:21:07.754Z,23.40
2018-05-26T08:23:11.148Z,23.50
2018-05-26T08:25:14.505Z,23.50
2018-05-26T08:27:17.992Z,23.50
2018-05-26T08:29:21.404Z,23.70
2018-05-26T08:31:24.747Z,23.70
2018-05-26T08:33:28.097Z,23.80
2018-05-26T08:35:32.410Z,24.00
2018-05-26T08:37:35.780Z,24.20
2018-05-26T08:39:39.083Z,24.10
2018-05-26T08:41:42.448Z,24.20
2018-05-26T08:43:45.776Z,24.30
2018-05-26T08:45:49.111Z,24.30
2018-05-26T08:47:52.452Z,24.30
2018-05-26T08:49:55.758Z,24.40
2018-05-26T08:51:59.109Z,24.40
2018-05-26T08:54:03.329Z,24.50
2018-05-26T08:56:06.698Z,24.50
2018-05-26T08:58:10.132Z,24.60
2018-05-26T09:00:13.602Z,24.50
2018-05-26T09:02:17.766Z,24.90
2018-05-26T09:04:22.054Z,24.90
2018-05-26T09:06:25.478Z,24.90
2018-05-26T09:08:28.772Z,24.90
2018-05-26T09:10:32.113Z,24.90
2018-05-26T09:12:35.498Z,25.10
2018-05-26T09:14:38.894Z,25.10
2018-05-26T09:16:42.280Z,25.30
2018-05-26T09:18:45.730Z,25.40
2018-05-26T09:20:51.466Z,25.30
2018-05-26T09:22:54.816Z,25.20
2018-05-26T09:24:58.179Z,25.40
2018-05-26T09:27:01.539Z,25.40
2018-05-26T09:29:04.883Z,25.50
2018-05-26T09:31:08.237Z,25.60
2018-05-26T09:33:11.578Z,25.60
2018-05-26T09:35:14.952Z,25.70
2018-05-26T09:39:34.451Z,25.60
2018-05-26T09:41:38.561Z,25.60
2018-05-26T09:43:42.703Z,25.70
2018-05-26T09:45:46.784Z,25.70
2018-05-26T09:47:50.154Z,25.60
2018-05-26T09:49:54.718Z,25.80
2018-05-26T09:51:58.059Z,25.90
2018-05-26T09:54:01.582Z,25.90
2018-05-26T09:56:04.935Z,26.00
2018-05-26T09:58:08.355Z,25.90
2018-05-26T10:00:11.745Z,26.10
2018-05-26T10:02:15.159Z,26.20
2018-05-26T10:04:19.303Z,26.10
2018-05-26T10:06:24.094Z,26.10
2018-05-26T10:08:27.455Z,26.10
2018-05-26T10:10:30.779Z,26.20
2018-05-26T10:12:34.173Z,26.10
2018-05-26T10:14:37.625Z,26.20
2018-05-26T10:16:40.943Z,26.50
2018-05-26T10:18:44.415Z,26.40
2018-05-26T10:20:47.731Z,26.30
2018-05-26T10:22:52.563Z,26.60
2018-05-26T10:24:55.950Z,26.60
2018-05-26T10:26:59.263Z,26.50
2018-05-26T10:29:04.338Z,26.30
2018-05-26T10:31:07.688Z,26.30
2018-05-26T10:33:10.985Z,26.40
2018-05-26T10:35:14.345Z,26.50
2018-05-26T10:37:18.826Z,26.50
2018-05-26T10:39:22.418Z,26.60
2018-05-26T10:41:25.763Z,26.60
2018-05-26T10:43:29.182Z,26.60
2018-05-26T10:45:57.673Z,26.70
2018-05-26T10:48:01.056Z,26.70
2018-05-26T10:50:04.427Z,26.80
2018-05-26T10:52:08.611Z,26.80
2018-05-26T10:54:13.790Z,26.80
2018-05-26T10:56:17.234Z,26.80
2018-05-26T10:58:20.856Z,26.70
2018-05-26T11:00:28.715Z,27.10
2018-05-26T11:02:33.044Z,27.10
2018-05-26T11:04:36.771Z,27.10
2018-05-26T11:06:49.443Z,27.10
2018-05-26T11:08:54.169Z,27.40
2018-05-26T11:10:57.772Z,27.40
2018-05-26T11:13:01.262Z,27.40
2018-05-26T11:15:04.684Z,27.40
2018-05-26T11:17:08.417Z,27.30
2018-05-26T11:19:12.518Z,27.40
2018-05-26T11:21:15.951Z,27.40
2018-05-26T11:23:20.274Z,27.60
2018-05-26T11:25:23.879Z,27.50
2018-05-26T11:27:28.102Z,27.60
2018-05-26T11:29:31.454Z,27.60
2018-05-26T11:31:34.851Z,27.60
2018-05-26T11:33:38.209Z,27.70
2018-05-26T11:35:41.699Z,27.60
2018-05-26T11:37:46.335Z,27.60
2018-05-26T11:39:49.848Z,27.70
2018-05-26T11:41:53.778Z,27.80
2018-05-26T11:43:59.052Z,27.90
2018-05-26T11:46:02.635Z,28.00
2018-05-26T11:48:05.967Z,28.20
2018-05-26T11:50:09.343Z,28.10
2018-05-26T11:52:12.779Z,28.20
2018-05-26T11:54:16.146Z,28.20
2018-05-26T11:56:20.252Z,28.20
2018-05-26T11:58:23.678Z,28.10
2018-05-26T12:00:27.010Z,28.20
2018-05-26T12:02:30.486Z,28.10
2018-05-26T12:04:33.835Z,28.20
2018-05-26T12:06:38.005Z,28.40
2018-05-26T12:08:41.545Z,28.30
2018-05-26T12:10:45.350Z,28.40
2018-05-26T12:12:48.739Z,28.40
2018-05-26T12:14:52.127Z,28.50
2018-05-26T12:16:55.544Z,28.60
2018-05-26T12:18:59.059Z,28.60
2018-05-26T12:21:02.404Z,28.60
2018-05-26T12:23:05.784Z,28.60
2018-05-26T12:25:09.424Z,28.50
2018-05-26T12:27:13.233Z,28.50
2018-05-26T12:29:18.084Z,28.70
2018-05-26T12:31:22.197Z,28.80
2018-05-26T12:33:26.534Z,28.90
2018-05-26T12:35:29.956Z,28.90
2018-05-26T12:37:33.551Z,28.90
2018-05-26T12:39:37.320Z,29.10
2018-05-26T12:41:40.973Z,29.10
2018-05-26T12:43:44.459Z,29.30
2018-05-26T12:45:47.856Z,29.30
2018-05-26T12:47:52.047Z,29.30
2018-05-26T12:49:55.446Z,29.20
2018-05-26T12:51:58.840Z,29.20
2018-05-26T12:54:03.021Z,29.10
2018-05-26T12:56:06.385Z,29.10
2018-05-26T12:58:09.812Z,29.00
2018-05-26T13:00:13.151Z,28.90
2018-05-26T13:02:16.749Z,29.00
2018-05-26T13:04:20.202Z,28.90
2018-05-26T13:06:24.931Z,28.70
2018-05-26T13:08:28.437Z,28.90
2018-05-26T13:10:31.924Z,29.10
2018-05-26T13:12:35.342Z,29.30
2018-05-26T13:14:38.748Z,29.40
2018-05-26T13:16:42.123Z,29.50
2018-05-26T13:18:46.146Z,29.60
2018-05-26T13:20:50.530Z,29.60
2018-05-26T13:22:54.038Z,29.60
2018-05-26T13:24:57.389Z,29.60
2018-05-26T13:27:00.772Z,29.50
2018-05-26T13:29:04.171Z,29.60
2018-05-26T13:31:07.486Z,29.70
2018-05-26T13:33:10.945Z,29.80
2018-05-26T13:35:14.346Z,30.00
2018-05-26T13:37:17.699Z,29.90
2018-05-26T13:39:21.080Z,30.10
2018-05-26T13:41:24.440Z,30.20
2018-05-26T13:43:27.788Z,30.30
2018-05-26T13:45:31.162Z,30.20
2018-05-26T13:47:34.570Z,30.20
2018-05-26T13:49:38.815Z,30.30
2018-05-26T13:51:42.185Z,30.30
2018-05-26T13:53:46.351Z,30.40
2018-05-26T13:55:51.569Z,30.30
2018-05-26T13:57:55.153Z,30.30
2018-05-26T13:59:58.547Z,30.50
2018-05-26T14:02:02.271Z,30.60
2018-05-26T14:04:05.724Z,30.50
2018-05-26T14:06:09.192Z,30.40
2018-05-26T14:08:12.892Z,30.20
2018-05-26T14:10:16.386Z,30.30
2018-05-26T14:12:20.105Z,30.40
2018-05-26T14:14:23.563Z,30.50
2018-05-26T14:16:27.778Z,30.40
2018-05-26T14:18:31.279Z,30.50
2018-05-26T14:20:34.755Z,30.80
2018-05-26T14:22:38.214Z,30.90
2018-05-26T14:24:41.819Z,30.90
2018-05-26T14:26:45.196Z,30.90
2018-05-26T14:28:55.314Z,30.80
2018-05-26T14:30:58.847Z,30.70
2018-05-26T14:33:02.366Z,30.60
2018-05-26T14:35:05.826Z,30.70
2018-05-26T14:37:09.418Z,30.70
2018-05-26T14:39:12.764Z,30.40
2018-05-26T14:41:16.133Z,30.40
2018-05-26T14:43:19.524Z,30.20
2018-05-26T14:45:22.870Z,30.10
2018-05-26T14:47:26.371Z,29.90
2018-05-26T14:49:29.850Z,29.70
2018-05-26T14:51:33.768Z,29.60
2018-05-26T14:53:37.167Z,29.60
2018-05-26T14:55:40.643Z,29.50
2018-05-26T14:57:44.106Z,29.50
2018-05-26T14:59:47.466Z,29.40
2018-05-26T15:01:51.676Z,29.10
2018-05-26T15:03:55.435Z,29.10
2018-05-26T15:05:58.825Z,29.00
2018-05-26T15:08:02.339Z,28.90
2018-05-26T15:10:05.789Z,28.90
2018-05-26T15:12:09.163Z,28.90
2018-05-26T15:14:13.073Z,29.10
2018-05-26T15:16:17.368Z,29.20
2018-05-26T15:18:21.589Z,29.40
2018-05-26T15:20:25.207Z,29.40
2018-05-26T15:22:28.795Z,29.60
2018-05-26T15:24:33.517Z,29.90
2018-05-26T15:26:37.723Z,29.90
2018-05-26T15:28:41.185Z,29.90
2018-05-26T15:30:44.669Z,30.00
2018-05-26T15:32:48.064Z,30.10
2018-05-26T15:34:51.544Z,30.20
2018-05-26T15:36:55.121Z,30.30
2018-05-26T15:38:58.587Z,30.40
2018-05-26T15:41:02.774Z,30.50
2018-05-26T15:43:06.267Z,30.40
2018-05-26T15:45:10.769Z,30.40
2018-05-26T15:47:15.249Z,30.30
2018-05-26T15:49:19.339Z,30.30
2018-05-26T15:51:22.722Z,30.20
2018-05-26T15:53:26.838Z,30.30
2018-05-26T15:55:30.190Z,30.20
2018-05-26T15:57:33.528Z,30.30
2018-05-26T15:59:36.980Z,30.20
2018-05-26T16:01:40.324Z,30.20
2018-05-26T16:03:44.474Z,30.10
2018-05-26T16:05:47.874Z,30.10
2018-05-26T16:07:51.170Z,30.10
2018-05-26T16:09:54.773Z,30.00
2018-05-26T16:17:35.358Z,30.10
2018-05-26T16:19:38.828Z,30.10
2018-05-26T16:21:42.208Z,30.00
2018-05-26T16:23:45.710Z,30.10
2018-05-26T16:25:49.928Z,30.20
2018-05-26T16:27:53.679Z,30.20
2018-05-26T16:29:57.180Z,30.30
2018-05-26T16:32:00.572Z,30.30
2018-05-26T16:34:04.091Z,30.20
2018-05-26T16:36:07.659Z,30.10
2018-05-26T16:38:11.094Z,30.10
2018-05-26T16:40:15.351Z,29.80
2018-05-26T16:42:18.799Z,29.80
2018-05-26T16:44:22.200Z,29.80
2018-05-26T16:46:25.609Z,29.80
2018-05-26T16:48:28.975Z,29.70
2018-05-26T16:50:32.372Z,29.60
2018-05-26T16:52:35.972Z,29.60
2018-05-26T16:54:40.110Z,29.50
2018-05-26T16:56:43.603Z,29.40
2018-05-26T16:58:47.109Z,29.30
2018-05-26T17:00:51.374Z,29.20
2018-05-26T17:02:54.828Z,29.20
2018-05-26T17:04:58.412Z,29.10
2018-05-26T17:07:01.842Z,29.10
2018-05-26T17:09:06.898Z,29.00
2018-05-26T17:11:10.372Z,28.90
2018-05-26T17:13:15.148Z,28.90
2018-05-26T17:15:18.610Z,28.90
2018-05-26T17:19:24.486Z,28.90
2018-05-26T17:21:27.900Z,28.90
2018-05-26T17:23:31.218Z,28.80
2018-05-26T17:25:34.614Z,28.80
2018-05-26T17:27:37.968Z,28.80
2018-05-26T17:29:42.095Z,28.80
2018-05-26T17:31:45.565Z,28.80
2018-05-26T17:33:49.043Z,28.80
2018-05-26T17:35:52.395Z,28.70
2018-05-26T17:37:56.534Z,28.70
2018-05-26T17:39:59.982Z,28.70
2018-05-26T17:42:03.503Z,28.80
2018-05-26T17:44:07.141Z,28.80
2018-05-26T17:46:10.548Z,28.80
2018-05-26T17:48:14.072Z,28.80
2018-05-26T17:50:18.674Z,28.90
2018-05-26T17:52:22.009Z,29.00
2018-05-26T17:54:25.497Z,29.10
2018-05-26T17:56:29.180Z,29.20
2018-05-26T17:58:32.536Z,29.30
2018-05-26T23:33:21.976Z,22.40
